createdAt,value
2023-02-12T00:00:08.735Z,103762.28
2023-02-12T00:02:36.705Z,103760.53
2023-02-12T00:05:04.757Z,103767.59
2023-02-12T00:07:32.669Z,103762.28
2023-02-12T00:10:00.587Z,103762.28
2023-02-12T00:12:28.648Z,103764.91
2023-02-12T00:14:56.531Z,103767.56
2023-02-12T00:17:25.884Z,103764.88
2023-02-12T00:19:53.809Z,103756.84
2023-02-12T00:22:21.707Z,103765.66
2023-02-12T00:24:49.581Z,103762.09
2023-02-12T00:27:17.511Z,103762.94
2023-02-12T00:29:45.363Z,103762.94
2023-02-12T00:32:14.303Z,103753.16
2023-02-12T00:34:43.579Z,103753.09
2023-02-12T00:37:11.465Z,103755.81
2023-02-12T00:39:39.341Z,103758.47
2023-02-12T00:42:07.335Z,103756.75
2023-02-12T00:44:35.459Z,103754.09
2023-02-12T00:47:03.397Z,103747.03
2023-02-12T00:49:34.117Z,103749.69
2023-02-12T00:52:03.604Z,103739.91
2023-02-12T00:54:31.603Z,103735.38
2023-02-12T00:56:59.530Z,103736.19
2023-02-12T00:59:27.458Z,103728.97
2023-02-12T01:01:55.764Z,103730.56
2023-02-12T01:04:23.852Z,103729.50
2023-02-12T01:06:51.744Z,103731.06
2023-02-12T01:09:21.063Z,103723.84
2023-02-12T01:11:48.967Z,103728.22
2023-02-12T01:14:16.860Z,103737.78
2023-02-12T01:16:44.751Z,103722.66
2023-02-12T01:19:12.781Z,103716.44
2023-02-12T01:21:40.697Z,103723.47
2023-02-12T01:24:08.700Z,103722.47
2023-02-12T01:26:38.016Z,103715.34
2023-02-12T01:29:07.823Z,103719.75
2023-02-12T01:31:37.745Z,103727.59
2023-02-12T01:34:06.487Z,103716.91
2023-02-12T01:36:34.367Z,103701.72
2023-02-12T01:39:03.684Z,103714.03
2023-02-12T01:41:32.707Z,103699.88
2023-02-12T01:44:18.186Z,103703.44
2023-02-12T01:46:46.524Z,103696.34
2023-02-12T01:49:16.361Z,103695.19
2023-02-12T01:51:44.244Z,103710.38
2023-02-12T01:54:12.883Z,103708.56
2023-02-12T01:56:40.823Z,103707.59
2023-02-12T01:59:08.702Z,103707.59
2023-02-12T02:01:37.992Z,103711.06
2023-02-12T02:04:07.646Z,103709.28
2023-02-12T02:06:36.554Z,103718.91
2023-02-12T02:09:04.927Z,103713.59
2023-02-12T02:11:49.338Z,103710.06
2023-02-12T02:14:35.416Z,103711.84
2023-02-12T02:17:24.807Z,103712.66
2023-02-12T02:20:12.507Z,103718.88
2023-02-12T02:22:41.714Z,103714.34
2023-02-12T02:25:36.910Z,103713.41
2023-02-12T02:28:13.651Z,103709.81
2023-02-12T02:30:45.557Z,103706.22
2023-02-12T02:33:27.012Z,103694.59
2023-02-12T02:35:57.108Z,103707.00
2023-02-12T02:38:28.677Z,103703.47
2023-02-12T02:40:59.714Z,103704.34
2023-02-12T02:43:29.703Z,103692.81
2023-02-12T02:46:01.044Z,103698.09
2023-02-12T02:48:30.699Z,103701.56
2023-02-12T02:51:00.358Z,103691.63
2023-02-12T02:53:29.508Z,103705.09
2023-02-12T02:55:58.239Z,103705.09
2023-02-12T02:58:27.963Z,103708.63
2023-02-12T03:00:58.651Z,103702.38
2023-02-12T03:03:28.552Z,103696.19
2023-02-12T03:05:57.778Z,103700.56
2023-02-12T03:08:27.263Z,103694.41
2023-02-12T03:10:56.371Z,103702.28
2023-02-12T03:13:26.050Z,103697.06
2023-02-12T03:15:55.644Z,103686.44
2023-02-12T03:18:26.624Z,103686.38
2023-02-12T03:20:56.726Z,103671.41
2023-02-12T03:23:25.831Z,103669.59
2023-02-12T03:25:57.033Z,103660.78
2023-02-12T03:28:28.191Z,103659.84
2023-02-12T03:30:59.761Z,103663.41
2023-02-12T03:33:31.581Z,103649.22
2023-02-12T03:36:03.310Z,103663.41
2023-02-12T03:38:37.354Z,103656.31
2023-02-12T03:41:07.566Z,103661.59
2023-02-12T03:43:39.244Z,103657.13
2023-02-12T03:46:09.684Z,103657.13
2023-02-12T03:48:42.914Z,103656.19
2023-02-12T03:51:14.898Z,103656.19
2023-02-12T03:53:44.247Z,103656.13
2023-02-12T03:56:14.018Z,103653.47
2023-02-12T03:58:42.101Z,103658.72
2023-02-12T04:01:10.142Z,103665.75
2023-02-12T04:03:39.590Z,103671.94
2023-02-12T04:06:16.808Z,103663.94
2023-02-12T04:08:44.674Z,103668.34
2023-02-12T04:11:17.817Z,103657.81
2023-02-12T04:13:48.675Z,103642.63
2023-02-12T04:16:21.208Z,103642.59
2023-02-12T04:18:50.711Z,103664.78
2023-02-12T04:21:23.804Z,103663.91
2023-02-12T04:23:56.191Z,103660.28
2023-02-12T04:26:25.747Z,103654.00
2023-02-12T04:29:09.428Z,103665.47
2023-02-12T04:31:39.711Z,103641.41
2023-02-12T04:34:11.347Z,103663.56
2023-02-12T04:36:42.932Z,103665.28
2023-02-12T04:39:12.184Z,103657.25
2023-02-12T04:41:40.442Z,103664.34
2023-02-12T04:44:18.274Z,103649.41
2023-02-12T04:46:46.321Z,103649.41
2023-02-12T04:49:17.320Z,103642.19
2023-02-12T04:51:45.241Z,103650.16
2023-02-12T04:54:13.123Z,103646.66
2023-02-12T04:56:40.983Z,103648.41
2023-02-12T04:59:09.442Z,103652.78
2023-02-12T05:01:37.575Z,103652.84
2023-02-12T05:04:05.863Z,103648.41
2023-02-12T05:06:35.903Z,103637.91
2023-02-12T05:09:04.069Z,103637.00
2023-02-12T05:11:32.011Z,103644.00
2023-02-12T05:13:59.971Z,103639.56
2023-02-12T05:16:27.909Z,103623.44
2023-02-12T05:18:55.825Z,103635.91
2023-02-12T05:21:23.684Z,103638.53
2023-02-12T05:23:52.955Z,103651.72
2023-02-12T05:26:21.651Z,103655.31
2023-02-12T05:28:49.551Z,103656.28
2023-02-12T05:31:21.504Z,103658.19
2023-02-12T05:33:49.882Z,103653.09
2023-02-12T05:36:18.672Z,103640.78
2023-02-12T05:38:46.595Z,103644.63
2023-02-12T05:41:16.570Z,103650.09
2023-02-12T05:43:45.250Z,103638.75
2023-02-12T05:46:14.107Z,103641.56
2023-02-12T05:48:42.054Z,103637.28
2023-02-12T05:51:10.987Z,103640.03
2023-02-12T05:53:38.955Z,103624.19
2023-02-12T05:56:11.906Z,103628.81
2023-02-12T05:58:41.706Z,103632.31
2023-02-12T06:01:13.754Z,103635.75
2023-02-12T06:03:41.740Z,103630.38
2023-02-12T06:06:09.649Z,103633.00
2023-02-12T06:08:37.529Z,103636.56
2023-02-12T06:11:07.494Z,103640.22
2023-02-12T06:13:35.382Z,103630.63
2023-02-12T06:16:04.984Z,103629.00
2023-02-12T06:18:32.923Z,103634.47
2023-02-12T06:21:00.863Z,103636.41
2023-02-12T06:23:28.805Z,103638.25
2023-02-12T06:25:57.649Z,103625.94
2023-02-12T06:28:25.848Z,103640.28
2023-02-12T06:30:53.839Z,103631.59
2023-02-12T06:33:23.202Z,103624.63
2023-02-12T06:35:51.084Z,103630.00
2023-02-12T06:38:18.958Z,103625.69
2023-02-12T06:40:46.822Z,103618.75
2023-02-12T06:43:14.710Z,103626.81
2023-02-12T06:45:42.585Z,103629.59
2023-02-12T06:48:10.506Z,103626.97
2023-02-12T06:50:39.817Z,103630.56
2023-02-12T06:53:07.711Z,103625.28
2023-02-12T06:55:35.997Z,103624.41
2023-02-12T06:58:03.886Z,103635.88
2023-02-12T07:00:31.929Z,103636.78
2023-02-12T07:02:59.811Z,103634.19
2023-02-12T07:05:27.760Z,103627.19
2023-02-12T07:07:57.025Z,103630.75
2023-02-12T07:10:24.888Z,103636.13
2023-02-12T07:12:52.777Z,103630.88
2023-02-12T07:15:20.643Z,103630.03
2023-02-12T07:17:48.530Z,103632.75
2023-02-12T07:20:16.519Z,103635.47
2023-02-12T07:22:44.767Z,103635.56
2023-02-12T07:25:14.102Z,103638.22
2023-02-12T07:27:42.031Z,103634.75
2023-02-12T07:30:10.824Z,103638.38
2023-02-12T07:32:38.719Z,103635.72
2023-02-12T07:35:07.143Z,103637.56
2023-02-12T07:37:35.284Z,103628.72
2023-02-12T07:40:03.249Z,103642.97
2023-02-12T07:42:32.803Z,103636.84
2023-02-12T07:45:00.750Z,103631.56
2023-02-12T07:47:28.669Z,103629.81
2023-02-12T07:49:56.763Z,103633.38
2023-02-12T07:52:24.630Z,103633.38
2023-02-12T07:54:52.505Z,103628.06
2023-02-12T07:57:20.366Z,103629.81
2023-02-12T07:59:49.654Z,103636.94
2023-02-12T08:02:17.645Z,103636.97
2023-02-12T08:04:45.700Z,103632.56
2023-02-12T08:07:13.688Z,103640.63
2023-02-12T08:09:41.676Z,103643.31
2023-02-12T08:12:09.616Z,103637.16
2023-02-12T08:14:37.530Z,103633.66
2023-02-12T08:17:08.381Z,103649.66
2023-02-12T08:19:36.549Z,103645.25
2023-02-12T08:22:06.477Z,103640.84
2023-02-12T08:24:34.408Z,103632.06
2023-02-12T08:27:02.477Z,103638.31
2023-02-12T08:29:30.971Z,103636.59
2023-02-12T08:31:59.764Z,103629.56
2023-02-12T08:34:29.867Z,103627.88
2023-02-12T08:36:57.917Z,103634.13
2023-02-12T08:39:28.467Z,103634.19
2023-02-12T08:41:56.507Z,103630.72
2023-02-12T08:44:24.437Z,103629.00
2023-02-12T08:46:53.178Z,103629.00
2023-02-12T08:49:22.164Z,103632.63
2023-02-12T08:51:52.423Z,103627.31
2023-02-12T08:54:23.805Z,103598.91
2023-02-12T08:56:51.795Z,103616.75
2023-02-12T08:59:19.702Z,103626.50
2023-02-12T09:01:47.581Z,103628.28
2023-02-12T09:04:17.947Z,103619.47
2023-02-12T09:06:46.070Z,103618.59
2023-02-12T09:09:15.582Z,103616.84
2023-02-12T09:11:43.535Z,103608.00
2023-02-12T09:14:12.807Z,103613.34
2023-02-12T09:16:40.819Z,103611.59
2023-02-12T09:19:08.870Z,103605.38
2023-02-12T09:21:36.747Z,103608.06
2023-02-12T09:24:04.898Z,103604.53
2023-02-12T09:26:34.257Z,103619.63
2023-02-12T09:29:02.942Z,103603.66
2023-02-12T09:31:31.475Z,103617.84
2023-02-12T09:34:00.691Z,103616.09
2023-02-12T09:36:28.578Z,103624.06
2023-02-12T09:38:56.645Z,103618.75
2023-02-12T09:42:12.925Z,103613.44
2023-02-12T09:44:45.480Z,103622.28
2023-02-12T09:47:14.893Z,103620.53
2023-02-12T09:49:53.350Z,103624.06
2023-02-12T09:52:23.460Z,103627.63
2023-02-12T09:54:51.375Z,103628.47
2023-02-12T09:57:20.917Z,103624.94
2023-02-12T09:59:52.571Z,103629.34
2023-02-12T10:02:20.906Z,103634.69
2023-02-12T10:05:00.551Z,103634.66
2023-02-12T10:07:36.940Z,103621.34
2023-02-12T10:10:16.607Z,103616.00
2023-02-12T10:12:50.931Z,103622.19
2023-02-12T10:15:27.181Z,103607.06
2023-02-12T10:17:57.507Z,103614.16
2023-02-12T10:20:56.609Z,103613.25
2023-02-12T10:23:47.228Z,103619.47
2023-02-12T10:26:19.762Z,103618.56
2023-02-12T10:28:47.685Z,103614.13
2023-02-12T10:31:20.785Z,103616.75
2023-02-12T10:33:50.039Z,103613.16
2023-02-12T10:36:25.204Z,103610.47
2023-02-12T10:38:54.569Z,103619.28
2023-02-12T10:41:22.530Z,103621.09
2023-02-12T10:43:50.450Z,103609.53
2023-02-12T10:46:19.817Z,103613.09
2023-02-12T10:48:49.304Z,103622.00
2023-02-12T10:51:36.811Z,103618.44
2023-02-12T10:54:32.364Z,103613.09
2023-02-12T10:57:00.294Z,103606.88
2023-02-12T10:59:28.177Z,103597.13
2023-02-12T11:01:57.658Z,103605.97
2023-02-12T11:04:27.444Z,103600.56
2023-02-12T11:06:59.329Z,103595.25
2023-02-12T11:09:30.611Z,103581.88
2023-02-12T11:11:58.631Z,103595.09
2023-02-12T11:14:26.654Z,103588.78
2023-02-12T11:16:55.647Z,103592.19
2023-02-12T11:19:25.725Z,103604.63
2023-02-12T11:21:53.614Z,103589.56
2023-02-12T11:24:31.445Z,103601.03
2023-02-12T11:27:13.035Z,103598.25
2023-02-12T11:29:41.000Z,103602.63
2023-02-12T11:32:09.771Z,103596.31
2023-02-12T11:34:39.264Z,103584.53
2023-02-12T11:37:08.366Z,103580.00
2023-02-12T11:39:37.231Z,103566.47
2023-02-12T11:42:06.774Z,103565.44
2023-02-12T11:44:36.336Z,103575.16
2023-02-12T11:47:08.844Z,103564.34
2023-02-12T11:49:44.237Z,103569.41
2023-02-12T11:52:19.638Z,103567.47
2023-02-12T11:54:47.832Z,103567.34
2023-02-12T11:57:36.629Z,103553.06
2023-02-12T12:00:06.439Z,103565.56
2023-02-12T12:02:38.295Z,103555.72
2023-02-12T12:05:10.662Z,103551.22
2023-02-12T12:07:38.630Z,103546.81
2023-02-12T12:10:08.735Z,103549.41
2023-02-12T12:12:39.255Z,103538.69
2023-02-12T12:15:25.849Z,103535.06
2023-02-12T12:18:13.295Z,103545.63
2023-02-12T12:20:44.868Z,103524.38
2023-02-12T12:23:15.478Z,103537.53
2023-02-12T12:25:45.061Z,103534.53
2023-02-12T12:28:31.798Z,103506.97
2023-02-12T12:31:03.689Z,103523.00
2023-02-12T12:33:38.572Z,103527.19
2023-02-12T12:36:51.856Z,103526.09
2023-02-12T12:39:28.153Z,103529.78
2023-02-12T12:42:23.632Z,103515.97
2023-02-12T12:45:00.672Z,103467.59
2023-02-12T12:47:30.667Z,103507.66
2023-02-12T12:50:06.220Z,103504.75
2023-02-12T12:52:51.984Z,103506.16
2023-02-12T12:55:32.824Z,103515.25
2023-02-12T12:58:02.548Z,103496.78
2023-02-12T13:00:42.781Z,103490.19
2023-02-12T13:03:41.112Z,103502.00
2023-02-12T13:06:23.989Z,103495.88
2023-02-12T13:09:11.436Z,103486.13
2023-02-12T13:11:44.288Z,103482.19
2023-02-12T13:14:29.927Z,103468.03
2023-02-12T13:17:01.452Z,103467.31
2023-02-12T13:19:35.661Z,103465.38
2023-02-12T13:22:05.216Z,103453.56
2023-02-12T13:24:35.597Z,103464.56
2023-02-12T13:27:05.724Z,103461.03
2023-02-12T13:29:35.606Z,103435.59
2023-02-12T13:32:05.040Z,103457.91
2023-02-12T13:34:33.349Z,103463.00
2023-02-12T13:37:01.916Z,103455.94
2023-02-12T13:39:33.339Z,103458.09
2023-02-12T13:42:09.762Z,103461.81
2023-02-12T13:44:39.738Z,103453.22
2023-02-12T13:47:10.774Z,103441.13
2023-02-12T13:49:42.758Z,103436.81
2023-02-12T13:52:12.543Z,103445.09
2023-02-12T13:54:52.601Z,103421.03
2023-02-12T13:57:21.899Z,103429.88
2023-02-12T13:59:50.489Z,103428.97
2023-02-12T14:02:29.850Z,103421.81
2023-02-12T14:04:59.887Z,103418.31
2023-02-12T14:07:42.503Z,103405.47
2023-02-12T14:10:22.116Z,103409.31
2023-02-12T14:12:51.394Z,103406.63
2023-02-12T14:15:29.712Z,103346.53
2023-02-12T14:17:57.966Z,103402.34
2023-02-12T14:20:28.159Z,103392.72
2023-02-12T14:23:24.214Z,103391.09
2023-02-12T14:26:10.062Z,103387.69
2023-02-12T14:28:48.927Z,103394.59
2023-02-12T14:31:31.896Z,103389.06
2023-02-12T14:34:49.508Z,103402.16
2023-02-12T14:37:38.272Z,103396.47
2023-02-12T14:40:44.173Z,103388.00
2023-02-12T14:43:32.648Z,103390.53
2023-02-12T14:46:40.465Z,103388.81
2023-02-12T14:49:19.507Z,103386.59
2023-02-12T14:51:52.308Z,103378.75
2023-02-12T14:54:31.338Z,103389.34
2023-02-12T14:57:01.592Z,103393.09
2023-02-12T14:59:29.498Z,103380.31
2023-02-12T15:01:58.863Z,103378.22
2023-02-12T15:04:27.561Z,103380.53
2023-02-12T15:06:58.288Z,103381.56
2023-02-12T15:09:29.747Z,103380.66
2023-02-12T15:12:01.890Z,103381.66
2023-02-12T15:14:31.936Z,103382.19
2023-02-12T15:17:03.593Z,103333.56
2023-02-12T15:19:38.815Z,103382.63
2023-02-12T15:22:18.155Z,103388.22
2023-02-12T15:24:46.942Z,103382.72
2023-02-12T15:27:15.327Z,103377.91
2023-02-12T15:29:44.092Z,103363.97
2023-02-12T15:32:17.532Z,103375.41
2023-02-12T15:34:45.584Z,103367.88
2023-02-12T15:37:19.286Z,103372.50
2023-02-12T15:39:48.044Z,103362.53
2023-02-12T15:42:30.309Z,103371.09
2023-02-12T15:45:19.654Z,103367.16
2023-02-12T15:47:59.163Z,103356.22
2023-02-12T15:50:27.134Z,103361.75
2023-02-12T15:52:55.264Z,103361.13
2023-02-12T15:55:25.204Z,103360.53
2023-02-12T15:57:53.820Z,103347.44
2023-02-12T16:00:30.149Z,103342.22
2023-02-12T16:02:59.478Z,103334.47
2023-02-12T16:05:27.570Z,103340.75
2023-02-12T16:07:55.608Z,103338.16
2023-02-12T16:10:23.684Z,103332.06
2023-02-12T16:12:51.766Z,103340.16
2023-02-12T16:15:27.516Z,103340.22
2023-02-12T16:17:56.498Z,103345.66
2023-02-12T16:20:27.206Z,103340.38
2023-02-12T16:22:55.363Z,103353.78
2023-02-12T16:25:24.611Z,103348.53
2023-02-12T16:27:57.638Z,103346.84
2023-02-12T16:30:27.798Z,103349.53
2023-02-12T16:32:56.188Z,103346.03
2023-02-12T16:35:30.311Z,103346.03
2023-02-12T16:38:03.030Z,103343.47
2023-02-12T16:40:35.864Z,103354.16
2023-02-12T16:43:26.537Z,103357.75
2023-02-12T16:46:04.188Z,103357.78
2023-02-12T16:48:33.575Z,103366.69
2023-02-12T16:51:06.106Z,103369.34
2023-02-12T16:53:43.094Z,103370.25
2023-02-12T16:56:15.748Z,103364.97
2023-02-12T16:58:46.485Z,103372.94
2023-02-12T17:01:18.076Z,103367.63
2023-02-12T17:03:47.718Z,103371.19
2023-02-12T17:06:17.762Z,103373.84
2023-02-12T17:08:45.644Z,103384.53
2023-02-12T17:11:14.266Z,103375.66
2023-02-12T17:13:42.127Z,103387.19
2023-02-12T17:16:12.699Z,103386.31
2023-02-12T17:18:42.507Z,103384.53
2023-02-12T17:21:15.977Z,103389.00
2023-02-12T17:23:45.290Z,103368.63
2023-02-12T17:26:13.246Z,103369.53
2023-02-12T17:28:41.475Z,103381.06
2023-02-12T17:31:09.546Z,103379.34
2023-02-12T17:33:37.471Z,103378.47
2023-02-12T17:36:06.210Z,103379.34
2023-02-12T17:38:36.153Z,103378.47
2023-02-12T17:41:09.440Z,103370.47
2023-02-12T17:43:37.310Z,103370.50
2023-02-12T17:46:09.933Z,103365.19
2023-02-12T17:48:37.968Z,103372.28
2023-02-12T17:51:06.304Z,103380.25
2023-02-12T17:53:34.183Z,103381.13
2023-02-12T17:56:02.191Z,103376.72
2023-02-12T17:58:32.006Z,103371.41
2023-02-12T18:01:05.515Z,103371.41
2023-02-12T18:03:33.465Z,103382.00
2023-02-12T18:06:01.386Z,103384.69
2023-02-12T18:08:29.404Z,103361.63
2023-02-12T18:10:57.693Z,103379.38
2023-02-12T18:13:25.765Z,103371.38
2023-02-12T18:15:55.323Z,103369.63
2023-02-12T18:18:23.202Z,103374.06
2023-02-12T18:20:51.126Z,103368.72
2023-02-12T18:23:19.083Z,103377.59
2023-02-12T18:25:46.941Z,103369.63
2023-02-12T18:28:14.876Z,103371.38
2023-02-12T18:30:43.855Z,103373.16
2023-02-12T18:33:13.341Z,103368.72
2023-02-12T18:35:41.823Z,103363.44
2023-02-12T18:38:09.767Z,103374.06
2023-02-12T18:40:40.799Z,103374.94
2023-02-12T18:43:08.706Z,103364.31
2023-02-12T18:45:36.601Z,103364.28
2023-02-12T18:48:08.497Z,103360.75
2023-02-12T18:50:37.798Z,103354.53
2023-02-12T18:53:05.884Z,103355.44
2023-02-12T18:55:33.769Z,103351.03
2023-02-12T18:58:01.704Z,103345.66
2023-02-12T19:00:29.740Z,103355.38
2023-02-12T19:02:57.719Z,103350.97
2023-02-12T19:05:26.338Z,103353.69
2023-02-12T19:07:55.718Z,103358.94
2023-02-12T19:10:23.660Z,103350.97
2023-02-12T19:12:51.626Z,103351.84
2023-02-12T19:15:19.498Z,103358.94
2023-02-12T19:17:47.402Z,103352.72
2023-02-12T19:20:16.875Z,103355.41
2023-02-12T19:22:46.412Z,103344.78
2023-02-12T19:25:15.877Z,103349.19
2023-02-12T19:27:43.738Z,103359.84
2023-02-12T19:30:12.514Z,103351.84
2023-02-12T19:32:40.428Z,103349.19
2023-02-12T19:35:08.454Z,103336.81
2023-02-12T19:37:36.327Z,103351.88
2023-02-12T19:40:04.230Z,103347.47
2023-02-12T19:42:33.850Z,103352.78
2023-02-12T19:45:01.849Z,103353.69
2023-02-12T19:47:29.765Z,103357.19
2023-02-12T19:49:57.663Z,103352.78
2023-02-12T19:52:25.555Z,103353.66
2023-02-12T19:54:53.637Z,103364.28
2023-02-12T19:57:21.530Z,103354.50
2023-02-12T19:59:50.775Z,103359.00
2023-02-12T20:02:18.742Z,103350.13
2023-02-12T20:04:47.329Z,103356.28
2023-02-12T20:07:15.281Z,103356.34
2023-02-12T20:09:43.166Z,103353.69
2023-02-12T20:12:11.376Z,103343.91
2023-02-12T20:14:39.283Z,103348.34
2023-02-12T20:17:08.581Z,103349.22
2023-02-12T20:19:36.465Z,103348.38
2023-02-12T20:22:04.666Z,103338.56
2023-02-12T20:24:33.914Z,103335.91
2023-02-12T20:27:02.254Z,103341.22
2023-02-12T20:29:30.133Z,103335.03
2023-02-12T20:31:58.096Z,103324.41
2023-02-12T20:34:27.434Z,103332.38
2023-02-12T20:36:55.322Z,103328.84
2023-02-12T20:39:23.377Z,103338.56
2023-02-12T20:41:51.294Z,103341.25
2023-02-12T20:44:21.315Z,103330.66
2023-02-12T20:46:52.492Z,103337.75
2023-02-12T20:49:23.925Z,103332.41
2023-02-12T20:51:53.285Z,103331.53
2023-02-12T20:54:21.216Z,103335.97
2023-02-12T20:56:49.762Z,103335.06
2023-02-12T20:59:18.495Z,103339.50
2023-02-12T21:01:46.919Z,103338.59
2023-02-12T21:04:16.817Z,103330.63
2023-02-12T21:06:45.663Z,103328.84
2023-02-12T21:09:15.084Z,103329.72
2023-02-12T21:11:45.594Z,103335.03
2023-02-12T21:14:23.589Z,103332.38
2023-02-12T21:16:52.389Z,103336.81
2023-02-12T21:19:20.348Z,103338.56
2023-02-12T21:21:48.241Z,103340.31
2023-02-12T21:24:19.720Z,103328.81
2023-02-12T21:26:47.583Z,103338.56
2023-02-12T21:29:15.533Z,103332.34
2023-02-12T21:31:44.578Z,103332.34
2023-02-12T21:34:14.101Z,103334.13
2023-02-12T21:36:43.058Z,103330.56
2023-02-12T21:39:12.870Z,103331.44
2023-02-12T21:41:42.976Z,103326.13
2023-02-12T21:44:12.419Z,103325.25
2023-02-12T21:46:40.339Z,103322.59
2023-02-12T21:49:08.216Z,103323.50
2023-02-12T21:51:39.114Z,103322.59
2023-02-12T21:54:08.147Z,103319.06
2023-02-12T21:56:37.033Z,103321.69
2023-02-12T21:59:06.314Z,103313.75
2023-02-12T22:01:35.323Z,103324.34
2023-02-12T22:04:03.203Z,103327.03
2023-02-12T22:06:31.094Z,103328.78
2023-02-12T22:09:02.540Z,103320.81
2023-02-12T22:11:30.424Z,103323.47
2023-02-12T22:13:58.305Z,103324.34
2023-02-12T22:16:28.644Z,103330.53
2023-02-12T22:18:57.383Z,103321.69
2023-02-12T22:21:26.247Z,103326.13
2023-02-12T22:23:54.568Z,103322.59
2023-02-12T22:26:23.309Z,103283.59
2023-02-12T22:28:51.907Z,103319.03
2023-02-12T22:31:21.935Z,103316.41
2023-02-12T22:33:51.712Z,103313.75
2023-02-12T22:36:21.871Z,103304.88
2023-02-12T22:38:49.813Z,103303.13
2023-02-12T22:41:17.687Z,103304.00
2023-02-12T22:43:45.649Z,103304.91
2023-02-12T22:46:14.105Z,103250.84
2023-02-12T22:48:42.040Z,103294.28
2023-02-12T22:51:14.111Z,103292.47
2023-02-12T22:53:42.020Z,103288.94
2023-02-12T22:56:10.131Z,103296.03
2023-02-12T22:58:38.685Z,103291.63
2023-02-12T23:01:07.272Z,103302.22
2023-02-12T23:03:37.378Z,103286.28
2023-02-12T23:06:06.058Z,103288.94
2023-02-12T23:08:35.425Z,103290.72
2023-02-12T23:11:03.311Z,103296.00
2023-02-12T23:13:31.319Z,103294.22
2023-02-12T23:15:59.365Z,103284.50
2023-02-12T23:18:27.342Z,103291.59
2023-02-12T23:20:55.751Z,103295.16
2023-02-12T23:23:23.830Z,103290.69
2023-02-12T23:25:54.496Z,103296.00
2023-02-12T23:28:22.545Z,103300.44
2023-02-12T23:30:50.691Z,103293.34
2023-02-12T23:33:19.166Z,103291.59
2023-02-12T23:35:47.205Z,103293.34
2023-02-12T23:38:15.123Z,103288.91
2023-02-12T23:40:43.105Z,103294.25
2023-02-12T23:43:12.406Z,103289.78
2023-02-12T23:45:40.344Z,103300.44
2023-02-12T23:48:08.254Z,103295.09
2023-02-12T23:50:36.196Z,103296.91
2023-02-12T23:53:04.103Z,103294.25
2023-02-12T23:55:32.011Z,103296.03
2023-02-12T23:57:59.859Z,103304.84
